createdAt,value
2018-06-28T00:00:01.622Z,15.89
2018-06-28T00:02:29.568Z,15.94
2018-06-28T00:04:57.474Z,15.84
2018-06-28T00:07:25.410Z,15.77
2018-06-28T00:09:53.346Z,15.70
2018-06-28T00:12:21.289Z,15.83
2018-06-28T00:14:49.288Z,15.74
2018-06-28T00:17:17.185Z,15.45
2018-06-28T00:19:45.157Z,15.71
2018-06-28T00:22:13.056Z,15.57
2018-06-28T00:24:40.967Z,15.45
2018-06-28T00:27:08.901Z,15.31
2018-06-28T00:29:36.831Z,15.41
2018-06-28T00:32:04.790Z,15.40
2018-06-28T00:34:32.750Z,15.52
2018-06-28T00:37:00.605Z,15.23
2018-06-28T00:39:28.461Z,15.16
2018-06-28T00:41:56.405Z,15.09
2018-06-28T00:44:24.356Z,15.07
2018-06-28T00:46:52.953Z,15.15
2018-06-28T00:49:20.944Z,15.01
2018-06-28T00:51:48.929Z,14.98
2018-06-28T00:54:16.789Z,15.00
2018-06-28T00:56:44.661Z,14.85
2018-06-28T00:59:12.618Z,14.91
2018-06-28T01:01:40.514Z,14.92
2018-06-28T01:04:08.402Z,14.79
2018-06-28T01:06:36.371Z,14.80
2018-06-28T01:09:08.209Z,14.78
2018-06-28T01:11:36.301Z,14.73
2018-06-28T01:14:04.298Z,14.79
2018-06-28T01:16:32.314Z,14.73
2018-06-28T01:19:00.245Z,14.64
2018-06-28T01:21:28.166Z,14.66
2018-06-28T01:23:56.223Z,14.55
2018-06-28T01:26:24.119Z,14.55
2018-06-28T01:28:52.140Z,14.56
2018-06-28T01:31:20.073Z,14.45
2018-06-28T01:33:48.056Z,14.42
2018-06-28T01:36:16.073Z,14.36
2018-06-28T01:38:44.006Z,14.39
2018-06-28T01:41:11.957Z,14.45
2018-06-28T01:43:42.872Z,14.36
2018-06-28T01:46:10.865Z,14.41
2018-06-28T01:48:38.851Z,14.35
2018-06-28T01:51:06.857Z,14.41
2018-06-28T01:53:34.776Z,14.40
2018-06-28T01:56:02.858Z,14.41
2018-06-28T01:58:30.872Z,14.36
2018-06-28T02:01:02.609Z,14.33
2018-06-28T02:03:30.576Z,14.34
2018-06-28T02:05:58.537Z,14.34
2018-06-28T02:08:26.441Z,14.30
2018-06-28T02:10:54.391Z,14.22
2018-06-28T02:13:22.261Z,14.22
2018-06-28T02:15:50.258Z,14.18
2018-06-28T02:18:18.241Z,14.17
2018-06-28T02:20:46.167Z,14.21
2018-06-28T02:23:14.111Z,14.15
2018-06-28T02:25:42.017Z,14.06
2018-06-28T02:28:09.996Z,14.03
2018-06-28T02:30:37.941Z,14.05
2018-06-28T02:33:05.885Z,14.03
2018-06-28T02:35:33.746Z,14.03
2018-06-28T02:38:01.942Z,14.04
2018-06-28T02:40:29.905Z,14.01
2018-06-28T02:42:57.802Z,14.02
2018-06-28T02:45:25.701Z,13.98
2018-06-28T02:47:53.617Z,13.90
2018-06-28T02:50:21.576Z,13.87
2018-06-28T02:52:49.474Z,13.86
2018-06-28T02:55:17.452Z,13.83
2018-06-28T02:57:45.434Z,13.84
2018-06-28T03:00:13.408Z,13.88
2018-06-28T03:02:41.378Z,13.79
2018-06-28T03:05:09.363Z,13.76
2018-06-28T03:07:37.269Z,13.74
2018-06-28T03:10:05.350Z,13.74
2018-06-28T03:12:33.225Z,13.71
2018-06-28T03:15:01.157Z,13.74
2018-06-28T03:17:29.071Z,13.73
2018-06-28T03:19:56.952Z,13.71
2018-06-28T03:22:24.848Z,13.65
2018-06-28T03:24:52.797Z,13.69
2018-06-28T03:27:20.749Z,13.66
2018-06-28T03:29:48.706Z,13.68
2018-06-28T03:32:16.677Z,13.66
2018-06-28T03:34:44.542Z,13.75
2018-06-28T03:37:12.549Z,13.72
2018-06-28T03:39:40.429Z,13.64
2018-06-28T03:42:08.397Z,13.75
2018-06-28T03:44:36.281Z,13.68
2018-06-28T03:47:04.490Z,13.69
2018-06-28T03:49:32.330Z,13.70
2018-06-28T03:52:00.312Z,13.70
2018-06-28T03:54:28.223Z,13.68
2018-06-28T03:56:57.580Z,13.72
2018-06-28T03:59:25.638Z,13.79
2018-06-28T04:01:53.546Z,13.79
2018-06-28T04:04:21.430Z,13.85
2018-06-28T04:06:49.418Z,13.84
2018-06-28T04:09:17.306Z,13.90
2018-06-28T04:11:45.203Z,14.00
2018-06-28T04:14:13.110Z,14.05
2018-06-28T04:16:40.997Z,14.08
2018-06-28T04:19:08.951Z,14.13
2018-06-28T04:21:36.862Z,14.21
2018-06-28T04:24:04.818Z,14.25
2018-06-28T04:26:32.749Z,14.30
2018-06-28T04:29:00.607Z,14.43
2018-06-28T04:31:28.574Z,14.53
2018-06-28T04:33:56.637Z,14.58
2018-06-28T04:36:24.577Z,14.68
2018-06-28T04:38:52.422Z,14.77
2018-06-28T04:41:20.335Z,14.85
2018-06-28T04:43:48.277Z,14.97
2018-06-28T04:46:16.594Z,15.08
2018-06-28T04:48:44.615Z,15.25
2018-06-28T04:51:12.654Z,15.52
2018-06-28T04:53:40.725Z,15.96
2018-06-28T04:56:08.678Z,16.55
2018-06-28T04:58:36.602Z,17.41
2018-06-28T05:01:04.551Z,18.30
2018-06-28T05:03:32.630Z,18.92
2018-06-28T05:06:00.507Z,19.52
2018-06-28T05:08:28.414Z,20.28
2018-06-28T05:10:56.338Z,20.96
2018-06-28T05:13:24.250Z,21.75
2018-06-28T05:15:52.287Z,22.44
2018-06-28T05:18:20.232Z,22.85
2018-06-28T05:20:48.215Z,23.29
2018-06-28T05:23:16.292Z,23.84
2018-06-28T05:25:45.094Z,24.22
2018-06-28T05:28:13.599Z,24.66
2018-06-28T05:30:41.617Z,25.09
2018-06-28T05:33:09.589Z,25.38
2018-06-28T05:35:37.591Z,25.63
2018-06-28T05:38:05.520Z,26.17
2018-06-28T05:40:33.507Z,26.60
2018-06-28T05:43:01.518Z,26.83
2018-06-28T05:45:29.462Z,27.36
2018-06-28T05:47:57.368Z,27.68
2018-06-28T05:50:25.247Z,27.82
2018-06-28T05:52:53.202Z,27.57
2018-06-28T05:55:21.178Z,27.55
2018-06-28T05:57:49.090Z,27.26
2018-06-28T06:00:17.797Z,27.32
2018-06-28T06:02:45.994Z,26.69
2018-06-28T06:05:15.542Z,26.38
2018-06-28T06:07:43.498Z,26.20
2018-06-28T06:10:11.779Z,25.98
2018-06-28T06:12:39.658Z,25.86
2018-06-28T06:15:07.902Z,25.61
2018-06-28T06:17:36.100Z,25.59
2018-06-28T06:20:04.466Z,25.50
2018-06-28T06:22:32.635Z,25.69
2018-06-28T06:25:01.025Z,25.49
2018-06-28T06:27:28.969Z,25.56
2018-06-28T06:29:56.870Z,25.57
2018-06-28T06:32:24.785Z,25.50
2018-06-28T06:34:52.748Z,25.21
2018-06-28T06:37:20.650Z,25.67
2018-06-28T06:39:48.565Z,25.53
2018-06-28T06:42:16.509Z,25.40
2018-06-28T06:44:44.433Z,24.99
2018-06-28T06:47:12.301Z,25.28
2018-06-28T06:49:40.205Z,25.13
2018-06-28T06:52:08.167Z,24.62
2018-06-28T06:54:36.066Z,24.95
2018-06-28T06:57:04.398Z,24.91
2018-06-28T06:59:32.222Z,24.88
2018-06-28T07:02:00.159Z,24.86
2018-06-28T07:04:28.072Z,24.95
2018-06-28T07:06:56.090Z,24.98
2018-06-28T07:09:24.141Z,25.10
2018-06-28T07:11:52.074Z,24.90
2018-06-28T07:14:20.892Z,25.00
2018-06-28T07:16:49.063Z,25.20
2018-06-28T07:19:16.985Z,24.98
2018-06-28T07:21:44.995Z,24.88
2018-06-28T07:24:13.019Z,24.94
2018-06-28T07:26:40.941Z,24.80
2018-06-28T07:29:08.845Z,24.97
2018-06-28T07:31:36.781Z,24.87
2018-06-28T07:34:05.071Z,24.98
2018-06-28T07:36:33.368Z,24.72
2018-06-28T07:39:09.576Z,24.70
2018-06-28T07:41:37.814Z,24.78
2018-06-28T07:44:08.412Z,24.87
2018-06-28T07:46:36.533Z,24.87
2018-06-28T07:49:12.415Z,24.77
2018-06-28T07:51:43.524Z,24.72
2018-06-28T07:54:11.411Z,24.63
2018-06-28T07:56:39.352Z,24.77
2018-06-28T07:59:08.745Z,24.52
2018-06-28T08:01:38.964Z,24.53
2018-06-28T08:04:06.991Z,24.48
2018-06-28T08:06:34.918Z,24.29
2018-06-28T08:09:04.093Z,24.25
2018-06-28T08:11:32.282Z,24.36
2018-06-28T08:14:02.086Z,24.18
2018-06-28T08:16:31.523Z,24.27
2018-06-28T08:19:00.934Z,24.38
2018-06-28T08:21:29.132Z,24.45
2018-06-28T08:23:57.842Z,24.47
2018-06-28T08:26:25.814Z,24.32
2018-06-28T08:28:53.695Z,24.40
2018-06-28T08:31:22.394Z,24.37
2018-06-28T08:33:50.348Z,24.51
2018-06-28T08:36:18.282Z,24.45
2018-06-28T08:38:46.201Z,24.47
2018-06-28T08:41:14.598Z,24.57
2018-06-28T08:43:42.573Z,24.76
2018-06-28T08:46:10.502Z,24.73
2018-06-28T08:48:38.462Z,24.82
2018-06-28T08:51:06.298Z,24.90
2018-06-28T08:53:34.219Z,24.92
2018-06-28T08:56:02.125Z,24.97
2018-06-28T08:58:30.090Z,25.03
2018-06-28T09:00:58.021Z,25.10
2018-06-28T09:03:25.955Z,25.18
2018-06-28T09:05:53.913Z,25.18
2018-06-28T09:08:21.810Z,25.20
2018-06-28T09:10:49.713Z,25.32
2018-06-28T09:13:17.540Z,25.52
2018-06-28T09:15:45.469Z,25.51
2018-06-28T09:18:13.340Z,25.57
2018-06-28T09:20:42.213Z,25.56
2018-06-28T09:23:10.246Z,25.72
2018-06-28T09:25:38.197Z,25.83
2018-06-28T09:28:06.121Z,25.78
2018-06-28T09:30:34.031Z,25.90
2018-06-28T09:33:01.925Z,25.93
2018-06-28T09:35:29.913Z,26.06
2018-06-28T09:37:57.837Z,26.12
2018-06-28T09:40:25.789Z,26.18
2018-06-28T09:42:53.713Z,26.35
2018-06-28T09:45:21.709Z,26.46
2018-06-28T09:47:49.674Z,26.40
2018-06-28T09:50:17.570Z,26.62
2018-06-28T09:52:45.463Z,27.15
2018-06-28T09:55:13.449Z,27.81
2018-06-28T09:57:43.789Z,28.43
2018-06-28T10:00:11.778Z,28.91
2018-06-28T10:02:39.654Z,29.55
2018-06-28T10:05:11.323Z,30.74
2018-06-28T10:07:39.147Z,31.67
2018-06-28T10:10:07.067Z,32.77
2018-06-28T10:12:35.026Z,33.57
2018-06-28T10:15:02.958Z,34.26
2018-06-28T10:17:30.833Z,34.64
2018-06-28T10:19:58.653Z,35.26
2018-06-28T10:22:26.596Z,35.68
2018-06-28T10:24:54.508Z,36.13
2018-06-28T10:27:22.369Z,36.31
2018-06-28T10:29:50.364Z,36.49
2018-06-28T10:32:18.341Z,36.44
2018-06-28T10:34:46.212Z,37.06
2018-06-28T10:37:14.089Z,37.47
2018-06-28T10:39:41.971Z,37.65
2018-06-28T10:42:09.899Z,38.03
2018-06-28T10:44:37.788Z,37.50
2018-06-28T10:47:05.643Z,37.63
2018-06-28T10:49:33.507Z,38.09
2018-06-28T10:52:01.346Z,38.50
2018-06-28T10:54:29.185Z,39.04
2018-06-28T10:56:57.105Z,39.22
2018-06-28T10:59:24.993Z,39.33
2018-06-28T11:01:52.962Z,39.41
2018-06-28T11:04:20.861Z,39.67
2018-06-28T11:06:48.757Z,39.44
2018-06-28T11:09:16.650Z,39.21
2018-06-28T11:11:44.532Z,38.59
2018-06-28T11:14:12.481Z,38.62
2018-06-28T11:16:40.350Z,38.70
2018-06-28T11:19:08.188Z,38.99
2018-06-28T11:21:36.113Z,39.30
2018-06-28T11:24:04.090Z,39.34
2018-06-28T11:26:32.009Z,39.76
2018-06-28T11:28:59.849Z,39.25
2018-06-28T11:31:27.728Z,39.27
2018-06-28T11:33:55.601Z,39.27
2018-06-28T11:36:23.566Z,39.76
2018-06-28T11:38:51.443Z,39.45
2018-06-28T11:41:19.337Z,38.35
2018-06-28T11:43:47.178Z,37.98
2018-06-28T11:46:15.025Z,37.80
2018-06-28T11:48:42.860Z,38.18
2018-06-28T11:51:10.688Z,38.46
2018-06-28T11:53:38.608Z,38.30
2018-06-28T11:56:06.606Z,38.10
2018-06-28T11:58:34.729Z,36.75
2018-06-28T12:01:02.698Z,37.37
2018-06-28T12:03:30.605Z,37.53
2018-06-28T12:05:58.526Z,37.24
2018-06-28T12:08:26.390Z,37.22
2018-06-28T12:10:54.340Z,37.23
2018-06-28T12:13:22.203Z,36.83
2018-06-28T12:15:50.053Z,36.85
2018-06-28T12:18:17.913Z,36.17
2018-06-28T12:20:45.825Z,36.10
2018-06-28T12:23:13.617Z,35.89
2018-06-28T12:25:41.489Z,36.14
2018-06-28T12:28:09.377Z,36.07
2018-06-28T12:30:39.105Z,36.15
2018-06-28T12:33:07.041Z,35.58
2018-06-28T12:35:34.951Z,35.43
2018-06-28T12:38:02.906Z,35.68
2018-06-28T12:40:30.900Z,35.17
2018-06-28T12:42:58.699Z,35.21
2018-06-28T12:45:26.577Z,35.38
2018-06-28T12:48:12.941Z,35.24
2018-06-28T12:50:40.837Z,35.46
2018-06-28T12:53:09.890Z,35.51
2018-06-28T12:56:26.088Z,35.62
2018-06-28T12:58:55.252Z,35.50
2018-06-28T13:01:24.157Z,35.82
2018-06-28T13:03:52.140Z,35.63
2018-06-28T13:06:20.325Z,35.60
2018-06-28T13:08:48.598Z,35.46
2018-06-28T13:11:16.506Z,35.57
2018-06-28T13:13:44.368Z,35.70
2018-06-28T13:16:13.624Z,35.58
2018-06-28T13:18:41.895Z,35.10
2018-06-28T13:21:10.078Z,35.13
2018-06-28T13:23:38.066Z,34.67
2018-06-28T13:26:06.046Z,34.72
2018-06-28T13:28:33.980Z,34.27
2018-06-28T13:31:01.805Z,34.09
2018-06-28T13:33:29.834Z,34.09
2018-06-28T13:35:57.852Z,33.50
2018-06-28T13:38:26.026Z,33.78
2018-06-28T13:40:54.148Z,33.84
2018-06-28T13:43:22.177Z,34.07
2018-06-28T13:45:50.043Z,34.06
2018-06-28T13:48:18.433Z,34.13
2018-06-28T13:50:46.372Z,34.07
2018-06-28T13:53:14.346Z,33.68
2018-06-28T13:55:42.177Z,33.23
2018-06-28T13:58:10.089Z,32.93
2018-06-28T14:00:38.085Z,32.41
2018-06-28T14:03:06.112Z,32.32
2018-06-28T14:05:33.881Z,31.85
2018-06-28T14:08:01.840Z,31.75
2018-06-28T14:10:29.686Z,31.62
2018-06-28T14:12:57.502Z,31.35
2018-06-28T14:15:25.368Z,31.16
2018-06-28T14:17:53.229Z,31.25
2018-06-28T14:20:21.196Z,31.34
2018-06-28T14:22:49.153Z,31.46
2018-06-28T14:25:16.965Z,31.45
2018-06-28T14:27:45.090Z,31.47
2018-06-28T14:30:13.726Z,31.51
2018-06-28T14:32:42.898Z,31.44
2018-06-28T14:35:11.398Z,31.62
2018-06-28T14:37:40.408Z,31.44
2018-06-28T14:40:08.989Z,31.24
2018-06-28T14:42:37.072Z,31.11
2018-06-28T14:45:05.696Z,30.71
2018-06-28T14:47:33.526Z,30.82
2018-06-28T14:50:01.564Z,30.92
2018-06-28T14:52:29.581Z,31.07
2018-06-28T14:54:57.512Z,31.22
2018-06-28T14:57:25.657Z,31.31
2018-06-28T14:59:53.580Z,30.98
2018-06-28T15:02:26.757Z,30.88
2018-06-28T15:04:54.677Z,30.87
2018-06-28T15:07:22.632Z,30.49
2018-06-28T15:09:50.537Z,30.28
2018-06-28T15:12:18.444Z,29.86
2018-06-28T15:14:46.393Z,29.68
2018-06-28T15:17:14.297Z,29.68
2018-06-28T15:19:42.201Z,29.52
2018-06-28T15:22:10.081Z,29.62
2018-06-28T15:24:37.977Z,29.48
2018-06-28T15:27:05.890Z,29.59
2018-06-28T15:29:34.034Z,29.71
2018-06-28T15:32:02.007Z,29.88
2018-06-28T15:34:30.064Z,30.04
2018-06-28T15:36:58.028Z,30.00
2018-06-28T15:39:26.406Z,29.94
2018-06-28T15:41:54.396Z,29.94
2018-06-28T15:44:22.304Z,29.95
2018-06-28T15:46:50.221Z,29.82
2018-06-28T15:49:18.383Z,29.83
2018-06-28T15:51:46.321Z,29.81
2018-06-28T15:54:14.197Z,29.69
2018-06-28T15:56:42.279Z,29.60
2018-06-28T15:59:10.238Z,29.57
2018-06-28T16:01:39.813Z,29.51
2018-06-28T16:04:07.850Z,29.59
2018-06-28T16:06:37.857Z,29.59
2018-06-28T16:09:10.906Z,29.64
2018-06-28T16:11:39.313Z,29.62
2018-06-28T16:14:08.021Z,29.58
2018-06-28T16:16:35.955Z,29.67
2018-06-28T16:19:11.917Z,29.68
2018-06-28T16:21:44.910Z,29.86
2018-06-28T16:24:12.889Z,29.99
2018-06-28T16:26:40.854Z,29.95
2018-06-28T16:29:08.825Z,29.78
2018-06-28T16:31:36.761Z,29.86
2018-06-28T16:34:04.749Z,29.92
2018-06-28T16:36:32.718Z,30.02
2018-06-28T16:39:00.612Z,29.97
2018-06-28T16:41:28.548Z,29.88
2018-06-28T16:43:56.402Z,29.87
2018-06-28T16:46:24.300Z,29.72
2018-06-28T16:48:52.219Z,29.59
2018-06-28T16:51:20.142Z,29.55
2018-06-28T16:53:48.077Z,29.50
2018-06-28T16:56:16.006Z,29.22
2018-06-28T16:58:43.967Z,29.39
2018-06-28T17:01:11.873Z,29.35
2018-06-28T17:03:39.981Z,29.34
2018-06-28T17:06:11.915Z,29.43
2018-06-28T17:08:39.813Z,29.54
2018-06-28T17:11:07.713Z,29.55
2018-06-28T17:13:35.681Z,29.74
2018-06-28T17:16:03.975Z,29.77
2018-06-28T17:18:31.846Z,29.69
2018-06-28T17:20:59.782Z,29.67
2018-06-28T17:23:28.009Z,29.71
2018-06-28T17:25:55.897Z,29.71
2018-06-28T17:28:23.746Z,29.68
2018-06-28T17:30:51.642Z,29.68
2018-06-28T17:33:19.501Z,29.50
2018-06-28T17:35:47.389Z,29.53
2018-06-28T17:38:16.667Z,29.55
2018-06-28T17:40:44.610Z,29.46
2018-06-28T17:43:13.629Z,29.33
2018-06-28T17:45:41.497Z,29.40
2018-06-28T17:48:09.401Z,29.45
2018-06-28T17:50:37.330Z,29.35
2018-06-28T17:53:05.196Z,29.07
2018-06-28T17:55:33.045Z,29.06
2018-06-28T17:58:00.956Z,28.67
2018-06-28T18:00:29.445Z,28.64
2018-06-28T18:02:57.453Z,28.33
2018-06-28T18:05:25.418Z,28.42
2018-06-28T18:07:53.313Z,28.23
2018-06-28T18:10:21.261Z,28.22
2018-06-28T18:12:50.046Z,28.07
2018-06-28T18:15:17.983Z,28.09
2018-06-28T18:17:45.886Z,27.83
2018-06-28T18:20:13.754Z,27.88
2018-06-28T18:22:41.640Z,27.79
2018-06-28T18:25:09.523Z,27.80
2018-06-28T18:27:37.459Z,27.72
2018-06-28T18:30:05.401Z,27.67
2018-06-28T18:32:33.328Z,27.47
2018-06-28T18:35:01.298Z,27.51
2018-06-28T18:37:29.221Z,27.47
2018-06-28T18:39:57.232Z,27.20
2018-06-28T18:42:25.073Z,27.13
2018-06-28T18:44:53.044Z,27.08
2018-06-28T18:47:20.968Z,26.88
2018-06-28T18:49:48.833Z,26.98
2018-06-28T18:52:16.749Z,26.84
2018-06-28T18:54:44.699Z,26.89
2018-06-28T18:57:12.652Z,26.80
2018-06-28T18:59:41.533Z,26.78
2018-06-28T19:02:10.110Z,26.75
2018-06-28T19:04:38.231Z,26.70
2018-06-28T19:07:06.605Z,26.63
2018-06-28T19:09:41.402Z,26.64
2018-06-28T19:12:09.429Z,26.56
2018-06-28T19:14:43.250Z,26.40
2018-06-28T19:17:15.607Z,26.35
2018-06-28T19:19:45.564Z,26.32
2018-06-28T19:22:21.560Z,26.26
2018-06-28T19:24:50.895Z,26.23
2018-06-28T19:27:18.760Z,26.21
2018-06-28T19:29:52.254Z,26.04
2018-06-28T19:32:25.930Z,26.01
2018-06-28T19:34:53.878Z,26.00
2018-06-28T19:37:27.998Z,25.97
2018-06-28T19:40:01.802Z,25.94
2018-06-28T19:42:37.313Z,25.75
2018-06-28T19:45:05.461Z,25.72
2018-06-28T19:47:33.592Z,25.68
2018-06-28T19:50:08.217Z,25.62
2018-06-28T19:52:41.901Z,25.63
2018-06-28T19:55:09.769Z,25.49
2018-06-28T19:57:38.089Z,25.44
2018-06-28T20:00:06.647Z,25.36
2018-06-28T20:02:40.139Z,25.29
2018-06-28T20:05:07.987Z,25.17
2018-06-28T20:07:35.905Z,25.12
2018-06-28T20:10:04.230Z,25.14
2018-06-28T20:12:37.872Z,25.13
2018-06-28T20:15:11.609Z,25.06
2018-06-28T20:17:56.900Z,25.02
2018-06-28T20:20:27.934Z,24.96
2018-06-28T20:22:56.550Z,24.96
2018-06-28T20:25:24.545Z,24.95
2018-06-28T20:27:58.344Z,24.95
2018-06-28T20:30:31.903Z,24.89
2018-06-28T20:33:05.561Z,24.76
2018-06-28T20:35:33.634Z,24.72
2018-06-28T20:38:01.480Z,24.67
2018-06-28T20:40:30.578Z,24.70
2018-06-28T20:42:58.552Z,24.66
2018-06-28T20:45:26.525Z,24.64
2018-06-28T20:47:54.613Z,24.56
2018-06-28T20:50:23.207Z,24.51
2018-06-28T20:52:51.153Z,24.47
2018-06-28T20:55:19.166Z,24.46
2018-06-28T20:57:47.093Z,24.49
2018-06-28T21:00:15.135Z,24.45
2018-06-28T21:02:43.138Z,24.37
2018-06-28T21:05:14.151Z,24.34
2018-06-28T21:07:43.605Z,24.33
2018-06-28T21:10:11.590Z,24.15
2018-06-28T21:12:39.493Z,24.18
2018-06-28T21:15:11.259Z,24.15
2018-06-28T21:17:39.318Z,24.12
2018-06-28T21:20:07.233Z,24.07
2018-06-28T21:22:35.120Z,24.07
2018-06-28T21:25:03.157Z,24.03
2018-06-28T21:27:31.058Z,23.97
2018-06-28T21:29:58.981Z,23.90
2018-06-28T21:32:26.931Z,23.92
2018-06-28T21:34:54.909Z,23.89
2018-06-28T21:37:22.765Z,23.85
2018-06-28T21:39:50.681Z,23.83
2018-06-28T21:42:18.642Z,23.78
2018-06-28T21:44:48.817Z,23.69
2018-06-28T21:47:18.777Z,23.65
2018-06-28T21:49:46.692Z,23.61
2018-06-28T21:52:16.824Z,23.55
2018-06-28T21:54:46.078Z,23.53
2018-06-28T21:57:13.953Z,23.51
2018-06-28T21:59:42.408Z,23.47
2018-06-28T22:02:14.613Z,23.46
2018-06-28T22:04:42.568Z,23.33
2018-06-28T22:07:10.601Z,23.34
2018-06-28T22:09:40.693Z,23.28
2018-06-28T22:12:11.078Z,23.27
2018-06-28T22:14:41.425Z,23.24
2018-06-28T22:17:13.808Z,23.20
2018-06-28T22:19:42.509Z,23.18
2018-06-28T22:22:10.448Z,23.12
2018-06-28T22:24:38.780Z,23.10
2018-06-28T22:27:07.312Z,23.06
2018-06-28T22:29:36.232Z,23.04
2018-06-28T22:32:08.015Z,22.97
2018-06-28T22:34:37.145Z,22.93
2018-06-28T22:37:06.267Z,22.91
2018-06-28T22:39:37.318Z,22.88
2018-06-28T22:42:05.278Z,22.86
2018-06-28T22:44:33.110Z,22.77
2018-06-28T22:47:01.056Z,22.75
2018-06-28T22:49:28.974Z,22.80
2018-06-28T22:51:56.805Z,22.75
2018-06-28T22:54:24.715Z,22.64
2018-06-28T22:56:52.603Z,22.69
2018-06-28T22:59:24.542Z,22.69
2018-06-28T23:01:52.445Z,22.62
2018-06-28T23:04:20.384Z,22.59
2018-06-28T23:06:48.313Z,22.56
2018-06-28T23:09:16.207Z,22.48
2018-06-28T23:11:44.145Z,22.34
2018-06-28T23:14:12.112Z,22.38
2018-06-28T23:16:40.024Z,22.40
2018-06-28T23:19:08.088Z,22.27
2018-06-28T23:21:35.973Z,22.30
2018-06-28T23:24:04.062Z,22.42
2018-06-28T23:26:31.929Z,22.30
2018-06-28T23:28:59.754Z,22.31
2018-06-28T23:31:27.678Z,22.30
2018-06-28T23:33:55.614Z,22.20
2018-06-28T23:36:23.517Z,22.30
2018-06-28T23:38:51.401Z,22.29
2018-06-28T23:41:20.324Z,22.31
2018-06-28T23:43:58.549Z,22.26
2018-06-28T23:46:26.385Z,22.25
2018-06-28T23:48:54.320Z,22.18
2018-06-28T23:51:22.202Z,22.19
2018-06-28T23:53:50.341Z,22.17
2018-06-28T23:56:18.215Z,22.18
2018-06-28T23:58:46.111Z,22.19
